Time;durP1;ratioP1;P1;durP2;ratioP2;P2;SDS_P1;SDS_P2;PMS_P1;PMS_P2;Temp;Humidity;BMP_temperature;BMP_pressure;BME280_temperature;BME280_humidity;BME280_pressure;Samples;Min_cycle;Max_cycle;Signal;HPM_P1;HPM_P2
2022/01/07 00:00:56;;;;;;;4.28;1.65;;;;;;;-3.40;80.59;99277.94;4493150;31;20103;-74
2022/01/07 00:03:23;;;;;;;2.92;1.67;;;;;;;-3.37;80.58;99283.87;4501589;31;20538;-74
2022/01/07 00:05:51;;;;;;;2.75;1.35;;;;;;;-3.39;81.02;99284.75;4501403;31;20532;-73
2022/01/07 00:08:18;;;;;;;2.28;1.37;;;;;;;-3.46;81.07;99283.22;4501650;31;20433;-74
2022/01/07 00:10:45;;;;;;;2.80;1.42;;;;;;;-3.50;81.45;99278.19;4501468;31;20092;-74
2022/01/07 00:13:13;;;;;;;4.62;1.62;;;;;;;-3.53;81.60;99286.78;4501362;31;20377;-74
2022/01/07 00:15:40;;;;;;;3.62;1.20;;;;;;;-3.56;81.75;99281.72;4501383;31;20472;-74
2022/01/07 00:18:08;;;;;;;4.55;1.92;;;;;;;-3.58;81.63;99293.75;4501454;31;20107;-74
2022/01/07 00:20:36;;;;;;;4.82;1.85;;;;;;;-3.54;81.75;99300.50;4494736;31;20092;-74
2022/01/07 00:23:04;;;;;;;3.33;1.80;;;;;;;-3.65;82.16;99292.19;4485528;31;20115;-74
2022/01/07 00:25:32;;;;;;;5.37;1.67;;;;;;;-3.58;81.97;99296.31;4485594;32;20096;-74
2022/01/07 00:27:59;;;;;;;4.72;2.20;;;;;;;-3.67;82.30;99299.09;4485520;31;20096;-74
2022/01/07 00:30:26;;;;;;;3.58;2.00;;;;;;;-3.67;82.25;99296.53;4485718;31;20119;-74
2022/01/07 00:32:53;;;;;;;4.80;1.95;;;;;;;-3.61;82.10;99293.81;4485777;31;20135;-74
2022/01/07 00:35:21;;;;;;;3.78;2.33;;;;;;;-3.69;82.41;99303.38;4485685;32;20152;-74
2022/01/07 00:37:49;;;;;;;3.08;1.80;;;;;;;-3.66;82.56;99298.22;4485609;31;20092;-74
2022/01/07 00:40:20;;;;;;;6.62;2.15;;;;;;;-3.68;82.57;99305.94;4485477;32;20115;-74
2022/01/07 00:42:49;;;;;;;8.05;2.05;;;;;;;-3.69;82.88;99300.81;4485372;31;20088;-74
2022/01/07 00:45:20;;;;;;;4.68;1.70;;;;;;;-3.58;82.54;99293.75;4485571;31;20386;-74
2022/01/07 00:47:48;;;;;;;2.90;1.77;;;;;;;-3.67;82.88;99299.91;4485475;31;20436;-74
2022/01/07 00:50:18;;;;;;;2.53;1.55;;;;;;;-3.68;83.07;99290.56;4485558;31;20088;-74
2022/01/07 00:52:46;;;;;;;5.78;1.50;;;;;;;-3.68;83.42;99287.16;4485279;31;20164;-74
2022/01/07 00:55:14;;;;;;;2.37;1.67;;;;;;;-3.64;83.58;99288.78;4485543;31;20093;-74
2022/01/07 00:57:42;;;;;;;3.97;1.80;;;;;;;-3.66;83.71;99290.53;4485276;31;20095;-74
2022/01/07 01:00:11;;;;;;;5.45;1.98;;;;;;;-3.64;83.72;99294.72;4487741;31;20587;-74
2022/01/07 01:02:39;;;;;;;5.00;1.55;;;;;;;-3.70;84.07;99304.28;4500946;31;20429;-74
2022/01/07 01:05:07;;;;;;;3.62;1.58;;;;;;;-3.67;84.04;99287.09;4501069;31;20114;-74
2022/01/07 01:07:35;;;;;;;6.93;2.03;;;;;;;-3.66;84.17;99293.09;4501073;31;20079;-74
2022/01/07 01:10:07;;;;;;;1.92;1.02;;;;;;;-3.75;84.55;99282.16;4500310;31;20104;-74
2022/01/07 01:12:38;;;;;;;6.50;2.17;;;;;;;-3.67;84.52;99276.03;4501146;31;20203;-74
2022/01/07 01:15:08;;;;;;;4.50;1.83;;;;;;;-3.76;85.01;99275.34;4501150;31;20085;-74
2022/01/07 01:17:35;;;;;;;5.40;1.65;;;;;;;-3.73;84.94;99282.13;4500872;31;20623;-74
2022/01/07 01:20:05;;;;;;;8.40;2.03;;;;;;;-3.69;84.87;99277.78;4498308;31;20103;-74
2022/01/07 01:22:33;;;;;;;9.75;2.28;;;;;;;-3.65;84.80;99275.13;4485158;31;20115;-74
2022/01/07 01:25:00;;;;;;;3.47;1.48;;;;;;;-3.63;84.10;99272.53;4485239;31;20096;-74
2022/01/07 01:27:27;;;;;;;3.20;1.55;;;;;;;-3.68;84.53;99271.78;4485284;31;20104;-74
2022/01/07 01:29:55;;;;;;;1.45;0.88;;;;;;;-3.69;84.68;99270.09;4485107;31;20123;-74
2022/01/07 01:32:22;;;;;;;3.55;1.40;;;;;;;-3.66;84.18;99280.28;4485067;31;20092;-74
2022/01/07 01:34:49;;;;;;;2.78;1.83;;;;;;;-3.65;84.23;99269.16;4485293;32;20092;-74
2022/01/07 01:37:16;;;;;;;2.25;1.48;;;;;;;-3.62;83.96;99279.31;4485200;31;20095;-74
2022/01/07 01:39:43;;;;;;;2.25;1.25;;;;;;;-3.69;84.30;99281.19;4485098;31;20123;-74
2022/01/07 01:42:11;;;;;;;2.20;1.23;;;;;;;-3.64;83.84;99281.91;4484998;32;20113;-74
2022/01/07 01:44:38;;;;;;;3.37;1.33;;;;;;;-3.62;84.02;99287.00;4484907;31;20107;-74
2022/01/07 01:47:05;;;;;;;2.65;1.75;;;;;;;-3.63;83.75;99281.06;4485026;31;20137;-74
2022/01/07 01:49:32;;;;;;;4.87;1.95;;;;;;;-3.60;83.41;99287.84;4484952;31;20092;-74
2022/01/07 01:52:01;;;;;;;7.57;1.90;;;;;;;-3.63;83.48;99291.28;4485116;31;20121;-74
2022/01/07 01:54:28;;;;;;;3.70;1.48;;;;;;;-3.63;83.60;99296.41;4485213;31;20119;-74
2022/01/07 01:56:55;;;;;;;2.83;1.42;;;;;;;-3.64;83.78;99287.03;4484943;31;20118;-74
2022/01/07 01:59:26;;;;;;;3.75;2.15;;;;;;;-3.65;84.00;99292.19;4485333;31;20163;-74
2022/01/07 02:01:54;;;;;;;3.20;1.65;;;;;;;-3.70;84.29;99278.66;4498857;31;20471;-74
2022/01/07 02:04:22;;;;;;;6.57;2.60;;;;;;;-3.71;84.24;99297.47;4500929;31;20140;-74
2022/01/07 02:06:50;;;;;;;3.78;1.98;;;;;;;-3.72;84.31;99304.31;4500657;31;20079;-74
2022/01/07 02:09:20;;;;;;;4.72;2.17;;;;;;;-3.69;84.13;99305.94;4500735;31;20122;-74
2022/01/07 02:11:49;;;;;;;5.80;2.47;;;;;;;-3.73;84.41;99306.91;4500728;31;20084;-74
2022/01/07 02:14:16;;;;;;;4.97;1.40;;;;;;;-3.74;84.46;99303.47;4500359;31;20096;-74
2022/01/07 02:16:43;;;;;;;3.12;1.67;;;;;;;-3.82;84.63;99301.09;4500667;31;20095;-74
2022/01/07 02:19:11;;;;;;;3.80;1.98;;;;;;;-3.80;84.69;99299.37;4499177;31;20187;-74
2022/01/07 02:21:38;;;;;;;3.45;1.83;;;;;;;-3.82;84.76;99306.22;4486832;31;20656;-74
2022/01/07 02:24:06;;;;;;;2.80;1.60;;;;;;;-3.82;84.76;99310.50;4484653;31;20131;-74
2022/01/07 02:26:34;;;;;;;4.60;1.98;;;;;;;-3.76;84.25;99313.75;4484620;32;20088;-74
2022/01/07 02:29:03;;;;;;;5.28;1.60;;;;;;;-3.75;83.80;99307.78;4484644;31;20598;-74
2022/01/07 02:31:30;;;;;;;3.70;1.60;;;;;;;-3.77;83.62;99312.09;4484787;31;20093;-74
2022/01/07 02:33:58;;;;;;;4.57;2.17;;;;;;;-3.76;83.24;99312.94;4484376;32;20116;-74
2022/01/07 02:36:25;;;;;;;4.07;1.73;;;;;;;-3.71;82.90;99311.09;4484790;31;20084;-74
2022/01/07 02:38:52;;;;;;;10.60;1.87;;;;;;;-3.69;82.56;99305.94;4484575;31;20123;-74
2022/01/07 02:41:20;;;;;;;2.85;1.80;;;;;;;-3.61;81.96;99316.88;4484661;31;20149;-74
2022/01/07 02:43:47;;;;;;;3.50;2.03;;;;;;;-3.65;81.85;99318.66;4484526;31;20097;-74
2022/01/07 02:46:14;;;;;;;5.32;1.87;;;;;;;-3.67;81.68;99322.13;4484479;31;20108;-74
2022/01/07 02:48:41;;;;;;;5.28;1.60;;;;;;;-3.64;81.70;99324.63;4484402;32;20123;-74
2022/01/07 02:51:08;;;;;;;5.12;1.37;;;;;;;-3.81;82.38;99313.03;4484478;32;20115;-74
2022/01/07 02:53:36;;;;;;;3.80;2.28;;;;;;;-3.82;82.46;99311.34;4484131;31;20142;-74
2022/01/07 02:56:03;;;;;;;4.90;1.77;;;;;;;-3.94;83.20;99316.72;4484418;31;20092;-74
2022/01/07 02:58:30;;;;;;;4.53;1.70;;;;;;;-3.92;83.14;99315.81;4484252;31;20115;-74
2022/01/07 03:00:57;;;;;;;3.25;1.12;;;;;;;-3.95;83.36;99326.12;4491851;31;20494;-74
2022/01/07 03:03:25;;;;;;;1.67;1.27;;;;;;;-3.85;82.53;99308.84;4499993;31;20096;-74
2022/01/07 03:05:53;;;;;;;6.90;2.65;;;;;;;-3.93;82.99;99316.69;4499720;31;20730;-74
2022/01/07 03:08:20;;;;;;;3.28;1.48;;;;;;;-3.88;82.63;99306.34;4499940;31;20388;-74
2022/01/07 03:10:48;;;;;;;4.45;1.60;;;;;;;-3.86;82.37;99314.84;4499948;31;20100;-74
2022/01/07 03:13:15;;;;;;;5.03;2.65;;;;;;;-3.77;81.64;99318.91;4499552;31;20096;-74
2022/01/07 03:15:42;;;;;;;2.70;1.77;;;;;;;-3.77;81.58;99327.44;4499825;31;20142;-74
2022/01/07 03:18:10;;;;;;;2.58;1.23;;;;;;;-3.75;81.34;99323.13;4499628;31;20140;-74
2022/01/07 03:20:40;;;;;;;5.22;2.15;;;;;;;-3.73;81.08;99325.66;4493066;31;20135;-74
2022/01/07 03:23:11;;;;;;;5.57;1.58;;;;;;;-3.72;81.08;99331.59;4483787;31;20111;-74
2022/01/07 03:25:41;;;;;;;3.10;1.45;;;;;;;-3.74;80.93;99326.53;4484087;31;20413;-74
2022/01/07 03:28:10;;;;;;;3.12;1.75;;;;;;;-3.83;81.34;99347.19;4483844;32;20205;-74
2022/01/07 03:30:37;;;;;;;3.65;1.60;;;;;;;-3.80;80.43;99344.56;4483871;31;20115;-74
2022/01/07 03:33:05;;;;;;;5.53;2.12;;;;;;;-3.83;79.99;99355.75;4485160;31;20183;-74
2022/01/07 03:35:33;;;;;;;6.18;2.08;;;;;;;-4.01;80.79;99367.19;4484643;32;20093;-74
2022/01/07 03:38:00;;;;;;;6.22;2.62;;;;;;;-4.16;81.90;99368.34;4485952;31;20123;-74
2022/01/07 03:40:28;;;;;;;5.25;2.72;;;;;;;-4.37;83.90;99366.22;4486020;31;20403;-72
2022/01/07 03:42:55;;;;;;;8.65;3.33;;;;;;;-4.67;85.19;99376.09;4485688;31;20405;-72
2022/01/07 03:45:23;;;;;;;4.40;2.40;;;;;;;-4.91;87.30;99372.25;4485810;31;20160;-72
2022/01/07 03:47:51;;;;;;;4.87;2.47;;;;;;;-5.10;88.57;99359.78;4485945;31;20437;-72
2022/01/07 03:50:23;;;;;;;4.07;2.17;;;;;;;-5.11;89.89;99362.38;4485770;31;20097;-71
2022/01/07 03:52:50;;;;;;;4.37;2.42;;;;;;;-5.12;90.08;99363.22;4485738;31;20107;-72
2022/01/07 03:55:20;;;;;;;6.87;2.08;;;;;;;-5.15;89.74;99365.84;4485599;31;20141;-72
2022/01/07 03:57:47;;;;;;;4.50;1.70;;;;;;;-5.08;88.63;99364.88;4485868;31;20099;-71
2022/01/07 04:00:20;;;;;;;4.15;1.40;;;;;;;-4.91;86.21;99365.44;4488694;31;20100;-72
2022/01/07 04:02:48;;;;;;;3.08;1.80;;;;;;;-4.95;85.20;99362.94;4501494;31;20119;-72
2022/01/07 04:05:19;;;;;;;5.07;1.83;;;;;;;-4.83;83.92;99371.28;4501329;31;20084;-71
2022/01/07 04:07:46;;;;;;;4.18;2.17;;;;;;;-4.60;82.88;99367.47;4501516;31;20088;-71
2022/01/07 04:10:14;;;;;;;2.92;1.48;;;;;;;-4.48;81.55;99367.25;4501575;31;20108;-71
2022/01/07 04:12:41;;;;;;;5.43;1.58;;;;;;;-4.53;81.14;99366.47;4501422;31;20118;-72
2022/01/07 04:15:08;;;;;;;5.22;1.67;;;;;;;-4.32;79.56;99364.41;4501232;31;20454;-72
2022/01/07 04:17:37;;;;;;;5.45;2.00;;;;;;;-4.36;79.29;99361.06;4501481;31;20164;-71
2022/01/07 04:20:06;;;;;;;3.40;1.80;;;;;;;-4.26;78.29;99350.66;4498318;31;20088;-74
2022/01/07 04:22:33;;;;;;;7.37;1.87;;;;;;;-4.30;77.97;99357.53;4485560;31;20119;-74
2022/01/07 04:25:07;;;;;;;9.40;1.87;;;;;;;-4.47;78.24;99363.81;4485529;31;20122;-74
2022/01/07 04:27:34;;;;;;;1.87;1.17;;;;;;;-4.42;78.07;99365.44;4485693;31;20525;-74
2022/01/07 04:30:02;;;;;;;3.15;1.62;;;;;;;-4.49;77.69;99365.53;4485630;32;20153;-74
2022/01/07 04:32:29;;;;;;;5.60;2.10;;;;;;;-4.42;77.43;99362.88;4485401;31;20088;-74
2022/01/07 04:34:56;;;;;;;3.72;1.77;;;;;;;-4.54;77.58;99367.34;4485422;32;20510;-74
2022/01/07 04:37:23;;;;;;;5.07;1.98;;;;;;;-4.78;78.18;99371.19;4485472;31;20480;-74
2022/01/07 04:39:50;;;;;;;5.47;1.58;;;;;;;-4.73;78.27;99371.09;4485500;31;20101;-74
2022/01/07 04:42:18;;;;;;;3.40;1.50;;;;;;;-4.82;78.13;99370.38;4485503;31;20118;-74
2022/01/07 04:44:45;;;;;;;2.62;1.40;;;;;;;-4.89;79.50;99365.41;4485080;31;20108;-74
2022/01/07 04:47:12;;;;;;;2.40;1.58;;;;;;;-4.96;79.86;99368.94;4485503;31;20092;-74
2022/01/07 04:49:39;;;;;;;4.53;1.40;;;;;;;-5.19;80.10;99368.44;4485584;31;20127;-72
2022/01/07 04:52:08;;;;;;;4.65;1.25;;;;;;;-5.22;80.32;99373.59;4485399;31;20092;-72
2022/01/07 04:54:35;;;;;;;6.12;1.75;;;;;;;-5.13;79.72;99377.72;4485321;31;20100;-72
2022/01/07 04:57:02;;;;;;;3.70;1.62;;;;;;;-5.07;79.65;99379.31;4485300;31;20127;-72
2022/01/07 04:59:29;;;;;;;6.68;1.85;;;;;;;-4.99;79.09;99385.16;4485478;31;20123;-71
2022/01/07 05:01:56;;;;;;;2.50;1.42;;;;;;;-4.90;78.36;99373.94;4499371;31;20095;-74
2022/01/07 05:04:24;;;;;;;3.08;1.10;;;;;;;-4.70;77.01;99378.72;4500289;31;20137;-74
2022/01/07 05:06:52;;;;;;;1.85;1.27;;;;;;;-4.75;76.57;99372.81;4498453;31;20402;-74
2022/01/07 05:09:20;;;;;;;3.67;1.25;;;;;;;-4.92;77.11;99376.53;4501031;31;20131;-74
2022/01/07 05:11:49;;;;;;;1.80;1.02;;;;;;;-4.90;76.81;99367.13;4500449;31;20190;-74
2022/01/07 05:14:17;;;;;;;4.95;1.48;;;;;;;-4.92;77.23;99361.22;4500717;31;20449;-74
2022/01/07 05:16:45;;;;;;;2.87;1.23;;;;;;;-4.94;76.78;99365.47;4500817;31;20100;-74
2022/01/07 05:19:12;;;;;;;3.35;1.45;;;;;;;-4.94;77.77;99370.59;4501224;31;20606;-74
2022/01/07 05:21:39;;;;;;;8.07;1.80;;;;;;;-5.06;79.16;99363.13;4501087;31;20100;-74
2022/01/07 05:24:07;;;;;;;12.68;2.10;;;;;;;-5.00;79.41;99363.88;4500725;31;20084;-74
2022/01/07 05:26:34;;;;;;;2.42;1.37;;;;;;;-5.10;79.55;99369.16;4500490;31;20100;-74
2022/01/07 05:29:02;;;;;;;3.25;1.40;;;;;;;-5.07;79.29;99366.53;4496817;31;20487;-74
2022/01/07 05:31:29;;;;;;;5.72;1.50;;;;;;;-4.94;78.29;99368.03;4500891;31;20088;-74
2022/01/07 05:33:56;;;;;;;3.78;1.40;;;;;;;-5.01;78.43;99374.97;4500994;31;20411;-74
2022/01/07 05:36:23;;;;;;;4.95;1.62;;;;;;;-5.04;78.79;99377.56;4500596;31;20151;-74
2022/01/07 05:38:51;;;;;;;6.55;1.98;;;;;;;-5.15;79.11;99383.72;4500902;31;20438;-74
2022/01/07 05:41:19;;;;;;;6.97;1.45;;;;;;;-5.23;79.54;99383.84;4501138;31;20096;-74
2022/01/07 05:43:46;;;;;;;2.67;1.45;;;;;;;-5.25;79.48;99378.75;4500802;31;20122;-74
2022/01/07 05:46:15;;;;;;;4.35;1.77;;;;;;;-5.20;79.17;99376.94;4500541;31;20116;-74
2022/01/07 05:48:44;;;;;;;5.72;1.92;;;;;;;-5.33;79.53;99375.44;4499249;31;20126;-74
2022/01/07 05:51:12;;;;;;;3.33;1.37;;;;;;;-5.13;77.58;99387.06;4500800;31;20123;-74
2022/01/07 05:53:39;;;;;;;2.97;1.65;;;;;;;-5.08;76.91;99380.19;4500458;31;21729;-74
2022/01/07 05:56:07;;;;;;;3.83;1.87;;;;;;;-5.10;77.00;99387.03;4499590;31;20095;-74
2022/01/07 05:58:34;;;;;;;2.45;1.00;;;;;;;-5.11;76.59;99385.34;4500954;31;20099;-74
2022/01/07 06:01:04;;;;;;;3.85;1.30;;;;;;;-5.08;76.72;99387.88;4500632;31;20100;-74
2022/01/07 06:03:33;;;;;;;2.92;1.25;;;;;;;-5.07;76.80;99392.94;4500453;31;20092;-74
2022/01/07 06:06:00;;;;;;;7.97;2.00;;;;;;;-5.12;77.45;99386.22;4499431;31;20152;-74
2022/01/07 06:08:27;;;;;;;3.20;1.62;;;;;;;-5.06;77.02;99383.56;4500155;31;20463;-74
2022/01/07 06:10:55;;;;;;;2.78;1.37;;;;;;;-5.00;76.69;99397.09;4499975;31;20446;-74
2022/01/07 06:13:22;;;;;;;6.60;2.40;;;;;;;-5.09;76.51;99401.50;4499446;31;20389;-74
2022/01/07 06:15:49;;;;;;;17.20;3.55;;;;;;;-5.18;76.72;99395.69;4500083;31;20096;-74
2022/01/07 06:18:16;;;;;;;12.90;3.45;;;;;;;-5.11;76.42;99395.56;4500146;31;20095;-74
2022/01/07 06:20:44;;;;;;;7.75;2.58;;;;;;;-5.21;76.89;99395.72;4500218;31;20123;-74
2022/01/07 06:23:11;;;;;;;6.68;2.75;;;;;;;-5.19;76.42;99399.09;4499971;31;20092;-74
2022/01/07 06:25:39;;;;;;;6.62;2.85;;;;;;;-5.18;76.15;99400.78;4500536;31;20100;-74
2022/01/07 06:28:06;;;;;;;6.18;2.85;;;;;;;-5.12;75.78;99404.09;4500491;31;20114;-74
2022/01/07 06:30:33;;;;;;;3.92;2.60;;;;;;;-5.09;75.20;99399.78;4499805;31;20558;-76
2022/01/07 06:33:00;;;;;;;8.10;2.12;;;;;;;-5.06;74.88;99404.00;4500254;31;20107;-75
2022/01/07 06:35:27;;;;;;;4.40;2.40;;;;;;;-5.05;74.49;99405.69;4500278;31;20130;-76
2022/01/07 06:37:54;;;;;;;5.20;1.83;;;;;;;-5.03;74.67;99406.50;4500092;31;20087;-75
2022/01/07 06:40:22;;;;;;;4.70;1.83;;;;;;;-4.93;73.67;99414.87;4500643;31;20441;-75
2022/01/07 06:42:49;;;;;;;8.90;2.08;;;;;;;-4.88;73.09;99419.03;4498573;31;20092;-75
2022/01/07 06:45:16;;;;;;;5.60;1.98;;;;;;;-4.89;73.00;99416.50;4498534;31;20122;-75
2022/01/07 06:47:44;;;;;;;3.87;1.90;;;;;;;-4.89;72.64;99417.38;4499864;31;20521;-75
2022/01/07 06:50:14;;;;;;;3.12;1.42;;;;;;;-4.92;73.16;99416.56;4499741;31;20100;-75
2022/01/07 06:52:41;;;;;;;4.22;1.30;;;;;;;-4.96;73.19;99418.31;4498704;31;20131;-74
2022/01/07 06:55:09;;;;;;;2.92;1.70;;;;;;;-4.91;73.19;99419.09;4496202;31;20130;-75
2022/01/07 06:57:36;;;;;;;4.18;1.35;;;;;;;-4.79;72.91;99427.44;4498662;31;20114;-75
2022/01/07 07:00:04;;;;;;;3.50;1.30;;;;;;;-4.72;72.24;99423.94;4498204;31;20099;-75
2022/01/07 07:02:32;;;;;;;23.02;2.22;;;;;;;-4.67;71.84;99432.34;4498782;31;20599;-75
2022/01/07 07:04:59;;;;;;;4.43;1.85;;;;;;;-4.51;71.56;99432.91;4498876;31;20525;-75
2022/01/07 07:07:26;;;;;;;7.87;2.10;;;;;;;-4.43;70.96;99430.25;4499349;31;20514;-75
2022/01/07 07:09:54;;;;;;;9.70;2.15;;;;;;;-4.31;70.44;99427.47;4498609;31;20151;-76
2022/01/07 07:12:21;;;;;;;7.30;1.77;;;;;;;-4.14;69.83;99439.94;4500562;31;20080;-75
2022/01/07 07:14:48;;;;;;;4.80;1.27;;;;;;;-4.20;70.22;99437.50;4501453;31;20092;-76
2022/01/07 07:17:15;;;;;;;5.05;1.70;;;;;;;-4.00;69.54;99439.69;4500604;31;20107;-76
2022/01/07 07:19:42;;;;;;;7.65;1.77;;;;;;;-3.84;69.25;99440.25;4500833;31;20100;-74
2022/01/07 07:22:09;;;;;;;5.62;1.70;;;;;;;-3.75;69.07;99435.78;4501336;31;20127;-75
2022/01/07 07:24:37;;;;;;;4.93;2.10;;;;;;;-3.67;68.50;99434.78;4501763;31;20123;-73
2022/01/07 07:27:04;;;;;;;5.90;1.65;;;;;;;-3.56;68.13;99435.38;4501687;31;20121;-75
2022/01/07 07:29:31;;;;;;;5.60;1.95;;;;;;;-3.49;67.72;99431.84;4501393;31;20110;-74
2022/01/07 07:32:03;;;;;;;6.10;1.73;;;;;;;-3.35;67.82;99438.38;4501319;31;20084;-74
2022/01/07 07:34:56;;;;;;;4.32;2.00;;;;;;;-3.13;67.23;99436.19;4500648;31;20585;-74
2022/01/07 07:37:20;;;;;;;3.12;1.60;;;;;;;-3.20;67.34;99440.59;4499035;31;20100;-73
2022/01/07 07:39:47;;;;;;;3.78;1.80;;;;;;;-3.08;68.04;99442.88;4501526;31;20476;-75
2022/01/07 07:42:14;;;;;;;7.10;1.90;;;;;;;-2.99;67.35;99441.00;4499958;31;20092;-73
2022/01/07 07:44:48;;;;;;;5.40;2.27;;;;;;;-2.87;67.20;99445.84;4500081;31;20138;-75
2022/01/07 07:47:15;;;;;;;6.65;2.50;;;;;;;-2.88;66.98;99449.28;4499595;31;20126;-74
2022/01/07 07:49:42;;;;;;;3.15;1.92;;;;;;;-2.86;66.89;99444.97;4500732;31;20145;-75
2022/01/07 07:52:09;;;;;;;2.67;1.58;;;;;;;-2.82;67.25;99444.00;4500942;31;20499;-74
2022/01/07 07:54:37;;;;;;;5.43;1.92;;;;;;;-2.69;66.68;99444.56;4500651;31;20080;-77
2022/01/07 07:57:04;;;;;;;4.53;2.45;;;;;;;-2.52;66.07;99456.97;4501487;31;20114;-76
2022/01/07 07:59:31;;;;;;;5.30;2.33;;;;;;;-2.47;66.32;99444.03;4501356;31;20087;-75
2022/01/07 08:02:00;;;;;;;9.63;2.95;;;;;;;-2.39;65.91;99445.53;4500689;31;20108;-75
2022/01/07 08:04:29;;;;;;;6.12;2.58;;;;;;;-2.38;65.89;99454.88;4501236;31;20131;-75
2022/01/07 08:06:56;;;;;;;10.20;3.00;;;;;;;-2.23;65.38;99455.38;4499979;31;20108;-76
2022/01/07 08:09:24;;;;;;;14.60;2.25;;;;;;;-2.11;65.25;99457.63;4485709;31;20425;-74
2022/01/07 08:11:53;;;;;;;4.32;2.20;;;;;;;-2.14;65.07;99452.59;4499551;31;20091;-74
2022/01/07 08:17:07;;;;;;;7.20;2.72;;;;;;;-1.74;64.50;99459.22;4500248;31;20445;-73
2022/01/07 08:19:35;;;;;;;12.45;3.12;;;;;;;-1.64;64.78;99458.06;4500344;31;20092;-74
2022/01/07 08:22:03;;;;;;;7.70;2.60;;;;;;;-1.51;64.36;99463.69;4495729;31;20118;-74
2022/01/07 08:24:30;;;;;;;30.30;3.55;;;;;;;-1.34;62.31;99457.22;4501031;31;20561;-74
2022/01/07 08:26:57;;;;;;;8.48;3.17;;;;;;;-1.30;63.18;99464.81;4500847;31;20521;-73
2022/01/07 08:29:29;;;;;;;5.10;2.25;;;;;;;-1.13;62.23;99466.03;4501329;31;20091;-74
2022/01/07 08:34:57;;;;;;;5.03;2.45;;;;;;;-1.10;62.15;99469.34;4485854;31;20088;-74
2022/01/07 08:37:27;;;;;;;7.22;2.25;;;;;;;-1.00;60.55;99463.91;4501046;31;20171;-75
2022/01/07 08:39:55;;;;;;;4.28;1.98;;;;;;;-0.93;60.93;99466.25;4500905;31;20103;-73
2022/01/07 08:42:26;;;;;;;4.72;1.85;;;;;;;-1.07;60.97;99471.00;4485355;31;20456;-74
2022/01/07 08:44:54;;;;;;;5.43;2.10;;;;;;;-0.99;59.32;99455.31;4499369;31;20153;-73
2022/01/07 08:47:23;;;;;;;5.20;2.15;;;;;;;-0.88;60.97;99470.41;4501215;31;20112;-73
2022/01/07 08:49:51;;;;;;;9.38;2.60;;;;;;;-1.03;59.18;99472.59;4499846;31;20108;-73
2022/01/07 08:52:20;;;;;;;7.80;3.20;;;;;;;-1.02;60.53;99474.25;4489231;31;20471;-75
2022/01/07 08:54:50;;;;;;;7.05;3.00;;;;;;;-0.81;60.63;99475.31;4500590;31;20105;-74
2022/01/07 08:57:19;;;;;;;7.70;2.78;;;;;;;-0.81;60.26;99470.19;4496209;31;20738;-74
2022/01/07 08:59:51;;;;;;;7.53;3.17;;;;;;;-0.81;61.14;99475.31;4499297;31;20092;-73
2022/01/07 09:02:19;;;;;;;6.35;2.78;;;;;;;-0.64;61.38;99477.34;4500995;31;20117;-73
2022/01/07 09:04:46;;;;;;;6.45;2.67;;;;;;;-0.62;60.04;99482.44;4500540;31;20145;-73
2022/01/07 09:07:14;;;;;;;8.10;3.33;;;;;;;-0.61;60.98;99471.28;4500013;31;20148;-74
2022/01/07 09:09:41;;;;;;;7.40;2.92;;;;;;;-0.51;60.27;99471.84;4500736;31;20152;-74
2022/01/07 09:12:09;;;;;;;7.90;3.60;;;;;;;-0.47;60.59;99468.25;4500796;31;20092;-73
2022/01/07 09:14:36;;;;;;;7.43;3.15;;;;;;;-0.63;60.26;99462.78;4500969;31;20153;-74
2022/01/07 09:17:04;;;;;;;11.48;3.40;;;;;;;-0.67;61.01;99462.03;4500094;31;20108;-74
2022/01/07 09:19:32;;;;;;;9.20;3.67;;;;;;;-0.55;61.59;99464.19;4496037;31;20092;-73
2022/01/07 09:21:59;;;;;;;9.13;4.00;;;;;;;-0.49;60.60;99457.19;4499985;31;20091;-73
2022/01/07 09:24:27;;;;;;;14.30;4.40;;;;;;;-0.50;61.31;99458.06;4498410;31;20123;-72
2022/01/07 09:26:55;;;;;;;9.38;4.28;;;;;;;-0.64;62.36;99459.34;4500665;31;20092;-72
2022/01/07 09:29:27;;;;;;;14.20;3.40;;;;;;;-0.58;62.44;99459.16;4496098;31;20152;-72
2022/01/07 09:31:55;;;;;;;10.93;4.50;;;;;;;-0.41;60.59;99460.31;4499753;31;20136;-72
2022/01/07 09:34:22;;;;;;;8.40;3.58;;;;;;;-0.54;62.63;99453.00;4499963;31;20096;-72
2022/01/07 09:36:56;;;;;;;9.02;3.78;;;;;;;-0.47;61.75;99455.38;4497271;31;20080;-73
2022/01/07 09:39:23;;;;;;;8.27;3.45;;;;;;;-0.39;60.92;99451.66;4498992;31;20096;-72
2022/01/07 09:41:51;;;;;;;8.52;3.05;;;;;;;-0.31;59.56;99443.69;4498866;31;20104;-72
2022/01/07 09:44:18;;;;;;;12.48;2.47;;;;;;;-0.35;60.75;99447.25;4499499;31;20142;-73
2022/01/07 09:46:45;;;;;;;5.28;2.92;;;;;;;-0.20;58.45;99431.31;4499362;31;20155;-72
2022/01/07 09:50:10;;;;;;;8.18;3.72;;;;;;;0.26;58.46;99433.97;4510345;31;124062;-73
2022/01/07 09:52:39;;;;;;;9.65;3.75;;;;;;;0.26;58.46;99433.97;4497835;31;20092;-72
2022/01/07 09:55:06;;;;;;;6.20;3.10;;;;;;;-0.24;59.98;99427.16;4495614;31;20148;-72
2022/01/07 09:57:34;;;;;;;8.45;3.20;;;;;;;0.02;59.66;99429.72;4504455;31;20079;-73
2022/01/07 10:00:02;;;;;;;18.95;3.70;;;;;;;-0.03;58.29;99432.44;4486569;31;20108;-74
2022/01/07 10:02:38;;;;;;;7.95;2.67;;;;;;;-0.24;59.09;99419.41;4492900;31;20480;-72
2022/01/07 10:05:16;;;;;;;7.70;3.72;;;;;;;-0.06;60.46;99424.81;4501008;31;20096;-72
2022/01/07 10:07:44;;;;;;;8.52;3.65;;;;;;;0.14;58.96;99427.53;4481722;32;20081;-72
2022/01/07 10:10:17;;;;;;;9.48;4.15;;;;;;;-0.09;59.81;99422.34;4493657;31;20116;-72
2022/01/07 10:12:50;;;;;;;11.10;4.53;;;;;;;0.02;59.73;99416.84;4477825;32;20618;-72
2022/01/07 10:15:19;;;;;;;6.93;3.53;;;;;;;0.05;58.65;99414.16;4496183;31;20465;-72
2022/01/07 10:18:03;;;;;;;8.18;4.57;;;;;;;0.24;59.83;99411.72;4494911;32;20095;-72
2022/01/07 10:20:34;;;;;;;6.82;3.85;;;;;;;0.31;58.19;99396.00;4497111;31;20144;-72
2022/01/07 10:23:07;;;;;;;14.02;4.47;;;;;;;0.31;59.85;99405.47;4495018;31;20472;-72
2022/01/07 10:25:37;;;;;;;10.57;4.30;;;;;;;0.33;59.59;99403.66;4487263;31;20142;-72
2022/01/07 10:28:08;;;;;;;9.75;4.03;;;;;;;0.50;59.40;99393.56;4492789;31;20088;-72
2022/01/07 10:30:44;;;;;;;7.65;2.83;;;;;;;0.35;59.53;99389.84;4497419;31;20852;-72
2022/01/07 10:33:29;;;;;;;6.78;3.00;;;;;;;0.46;59.46;99391.16;4494009;31;20791;-72
2022/01/07 10:36:19;;;;;;;7.50;3.60;;;;;;;0.40;59.08;99389.66;4492898;32;20084;-72
2022/01/07 10:38:48;;;;;;;5.90;2.65;;;;;;;0.57;59.43;99381.28;4491310;31;20477;-72
2022/01/07 10:41:16;;;;;;;7.25;3.10;;;;;;;0.68;59.47;99391.16;4488337;31;20157;-73
2022/01/07 10:43:43;;;;;;;6.70;3.28;;;;;;;0.75;57.75;99371.16;4490961;31;20545;-73
2022/01/07 10:46:10;;;;;;;6.65;2.37;;;;;;;0.42;60.17;99382.69;4495069;32;20092;-73
2022/01/07 10:48:56;;;;;;;4.32;2.42;;;;;;;0.21;58.67;99365.47;4483705;31;20141;-73
2022/01/07 10:51:30;;;;;;;5.72;2.97;;;;;;;0.37;59.63;99361.44;4492224;31;20107;-72
2022/01/07 10:54:05;;;;;;;9.30;2.45;;;;;;;0.31;58.82;99370.22;4492275;31;20164;-70
2022/01/07 10:56:39;;;;;;;4.28;2.70;;;;;;;0.26;59.86;99366.13;4484128;31;20489;-72
2022/01/07 10:59:17;;;;;;;6.62;2.72;;;;;;;0.30;59.86;99365.12;4482185;32;20138;-73
2022/01/07 11:01:55;;;;;;;5.40;3.05;;;;;;;0.33;59.44;99357.28;4477073;32;20100;-73
2022/01/07 11:04:26;;;;;;;5.03;2.22;;;;;;;0.41;59.58;99355.25;4479874;31;20104;-72
2022/01/07 11:06:56;;;;;;;6.30;2.10;;;;;;;0.52;57.94;99353.09;4473792;32;20525;-72
2022/01/07 11:09:24;;;;;;;6.30;2.37;;;;;;;0.77;57.71;99354.72;4487015;31;20108;-72
2022/01/07 11:11:54;;;;;;;4.15;2.17;;;;;;;0.75;56.16;99338.47;4481094;31;20122;-73
2022/01/07 11:14:24;;;;;;;6.00;2.45;;;;;;;0.87;55.65;99337.97;4476889;32;20418;-72
2022/01/07 11:16:54;;;;;;;4.85;2.75;;;;;;;0.84;56.70;99353.56;4474945;32;20104;-73
2022/01/07 11:19:33;;;;;;;7.75;2.53;;;;;;;0.65;56.53;99337.16;4485327;31;20417;-73
2022/01/07 11:22:02;;;;;;;5.90;2.55;;;;;;;0.73;57.55;99329.09;4477854;32;20493;-73
2022/01/07 11:24:35;;;;;;;4.85;2.15;;;;;;;0.84;57.78;99334.69;4479248;31;20091;-72
2022/01/07 11:27:29;;;;;;;3.72;2.15;;;;;;;0.84;57.73;99329.53;4484896;31;20102;-72
2022/01/07 11:30:01;;;;;;;6.12;2.47;;;;;;;0.99;54.32;99321.16;4476697;31;20096;-72
2022/01/07 11:32:32;;;;;;;4.68;2.50;;;;;;;0.90;56.29;99331.84;4480422;31;20135;-72
2022/01/07 11:35:18;;;;;;;3.78;2.30;;;;;;;0.51;57.52;99315.31;4480018;31;20089;-72
2022/01/07 11:37:51;;;;;;;4.80;2.03;;;;;;;0.30;58.56;99321.31;4481168;31;20091;-72
2022/01/07 11:40:31;;;;;;;6.37;2.42;;;;;;;0.43;58.43;99322.53;4479117;31;20119;-72
2022/01/07 11:43:06;;;;;;;8.82;2.70;;;;;;;0.46;58.90;99317.25;4489329;31;20119;-72
2022/01/07 11:45:33;;;;;;;5.25;2.80;;;;;;;0.72;58.17;99320.53;4491731;31;20088;-72
2022/01/07 11:48:14;;;;;;;9.90;2.67;;;;;;;0.58;57.15;99297.88;4479466;31;20092;-72